Time;durP1;ratioP1;P1;durP2;ratioP2;P2;SDS_P1;SDS_P2;PMS_P1;PMS_P2;Temp;Humidity;BMP_temperature;BMP_pressure;BME280_temperature;BME280_humidity;BME280_pressure;Samples;Min_cycle;Max_cycle;Signal;HPM_P1;HPM_P2
2022/11/06 00:01:11;;;;;;;9.43;6.20;;;10.50;99.90;;;;;;4945437;28;20476;-83
2022/11/06 00:03:38;;;;;;;7.97;5.47;;;10.50;99.90;;;;;;4950110;28;21204;-84
2022/11/06 00:09:05;;;;;;;7.20;5.47;;;10.30;99.90;;;;;;4937817;28;20824;-83
2022/11/06 00:11:32;;;;;;;6.80;5.87;;;10.20;99.90;;;;;;4946196;28;20470;-82
2022/11/06 00:14:00;;;;;;;6.07;5.00;;;10.30;99.90;;;;;;4948192;28;20538;-82
2022/11/06 00:16:27;;;;;;;8.13;5.40;;;10.30;99.90;;;;;;4933600;28;20857;-82
2022/11/06 00:18:55;;;;;;;6.73;5.30;;;10.30;99.90;;;;;;4952173;28;20467;-83
2022/11/06 00:21:25;;;;;;;7.27;4.90;;;10.40;99.90;;;;;;4945374;28;21489;-84
2022/11/06 00:23:53;;;;;;;6.63;4.90;;;10.40;99.90;;;;;;4945623;28;20576;-84
2022/11/06 00:26:33;;;;;;;7.33;5.60;;;10.30;99.90;;;;;;4953533;28;20628;-83
2022/11/06 00:29:01;;;;;;;5.67;5.03;;;10.30;99.90;;;;;;4951537;28;20459;-83
2022/11/06 00:31:30;;;;;;;11.60;5.07;;;10.30;99.90;;;;;;4952166;28;20649;-83
2022/11/06 00:33:59;;;;;;;6.43;5.00;;;10.40;99.90;;;;;;4951041;28;21159;-84
2022/11/06 00:36:30;;;;;;;5.50;4.93;;;10.40;99.90;;;;;;4947773;28;20465;-84
2022/11/06 00:38:58;;;;;;;4.80;4.30;;;10.40;99.90;;;;;;4948928;28;20470;-84
2022/11/06 00:41:25;;;;;;;6.50;4.30;;;10.40;99.90;;;;;;4949995;28;20549;-84
2022/11/06 00:43:58;;;;;;;7.73;4.20;;;10.40;99.90;;;;;;4949217;28;20484;-85
2022/11/06 00:46:26;;;;;;;5.93;4.70;;;10.40;99.90;;;;;;4949087;28;20489;-85
2022/11/06 00:48:54;;;;;;;5.10;4.60;;;10.50;99.90;;;;;;4934666;28;20459;-84
2022/11/06 00:51:23;;;;;;;4.03;3.63;;;10.50;99.90;;;;;;4947154;28;20476;-83
2022/11/06 00:53:58;;;;;;;6.50;5.10;;;10.40;99.90;;;;;;4946375;28;20477;-83
2022/11/06 00:56:26;;;;;;;4.70;4.30;;;10.50;99.90;;;;;;4932142;28;20461;-84
2022/11/06 00:58:58;;;;;;;6.87;5.07;;;10.50;99.90;;;;;;4949690;28;21714;-83
2022/11/06 01:01:28;;;;;;;6.90;4.57;;;10.50;99.90;;;;;;4950066;28;20488;-83
2022/11/06 01:04:01;;;;;;;7.90;4.53;;;10.40;99.90;;;;;;4947399;28;20574;-82
2022/11/06 01:06:33;;;;;;;5.20;4.17;;;10.40;99.90;;;;;;4947157;28;20456;-83
2022/11/06 01:09:00;;;;;;;6.50;4.90;;;10.40;99.90;;;;;;4952095;28;20511;-83
2022/11/06 01:11:31;;;;;;;5.80;3.83;;;10.40;99.90;;;;;;4951107;28;20473;-84
2022/11/06 01:14:20;;;;;;;6.07;4.43;;;10.30;99.90;;;;;;4937659;28;20462;-84
2022/11/06 01:16:47;;;;;;;6.33;3.90;;;10.20;99.90;;;;;;4938840;28;20456;-84
2022/11/06 01:19:15;;;;;;;4.83;4.30;;;10.30;99.90;;;;;;4948066;28;20532;-84
2022/11/06 01:21:45;;;;;;;7.60;4.27;;;10.20;99.90;;;;;;4950652;28;21424;-84
2022/11/06 01:24:32;;;;;;;4.10;3.40;;;10.30;99.90;;;;;;4936463;28;20519;-84
2022/11/06 01:26:58;;;;;;;5.17;4.40;;;10.20;99.90;;;;;;4934157;28;20452;-83
2022/11/06 01:29:45;;;;;;;4.67;3.27;;;10.10;99.90;;;;;;4951637;28;20493;-83
2022/11/06 01:32:12;;;;;;;6.30;3.60;;;10.10;99.90;;;;;;4953831;28;20555;-84
2022/11/06 01:34:39;;;;;;;6.10;4.30;;;10.10;99.90;;;;;;4937930;28;20459;-83
2022/11/06 01:37:06;;;;;;;4.70;4.20;;;10.10;99.90;;;;;;4957606;28;20507;-83
2022/11/06 01:39:38;;;;;;;5.43;3.70;;;10.10;99.90;;;;;;4937162;28;20486;-83
2022/11/06 01:42:05;;;;;;;4.77;2.93;;;10.00;99.90;;;;;;4953126;28;20527;-83
2022/11/06 01:44:34;;;;;;;5.67;4.00;;;10.10;99.90;;;;;;4949024;28;20481;-83
2022/11/06 01:47:05;;;;;;;4.40;3.80;;;10.10;99.90;;;;;;4958806;28;20525;-83
2022/11/06 01:49:36;;;;;;;6.83;3.20;;;10.00;99.90;;;;;;4948550;28;20458;-82
2022/11/06 01:52:10;;;;;;;4.43;3.57;;;10.00;99.90;;;;;;4957180;28;20500;-84
2022/11/06 01:54:39;;;;;;;10.07;3.40;;;9.90;99.90;;;;;;4951142;28;20672;-82
2022/11/06 01:57:07;;;;;;;3.63;3.33;;;9.90;99.90;;;;;;4951555;28;20458;-82
2022/11/06 01:59:40;;;;;;;4.40;3.10;;;9.90;99.90;;;;;;4970447;28;20466;-82
2022/11/06 02:02:07;;;;;;;7.20;3.57;;;10.00;99.90;;;;;;4959885;28;20479;-83
2022/11/06 02:04:41;;;;;;;5.43;3.17;;;10.00;99.90;;;;;;4948363;28;20507;-82
2022/11/06 02:07:09;;;;;;;3.43;3.00;;;9.90;99.90;;;;;;4931288;28;20853;-84
2022/11/06 02:09:36;;;;;;;4.63;3.40;;;9.90;99.90;;;;;;4951241;28;20459;-83
2022/11/06 02:12:28;;;;;;;5.57;3.20;;;9.90;99.90;;;;;;4949245;28;21389;-82
2022/11/06 02:15:03;;;;;;;3.70;3.20;;;10.00;99.90;;;;;;4952488;28;20440;-82
2022/11/06 02:17:58;;;;;;;6.23;3.67;;;10.00;99.90;;;;;;4949885;28;20449;-82
2022/11/06 02:20:25;;;;;;;5.67;3.53;;;9.90;99.90;;;;;;4951793;28;20486;-84
2022/11/06 02:23:02;;;;;;;4.47;3.60;;;9.90;99.90;;;;;;4952594;28;20519;-83
2022/11/06 02:26:06;;;;;;;5.17;2.70;;;9.80;99.90;;;;;;4938567;28;20468;-83
2022/11/06 02:28:36;;;;;;;5.43;2.93;;;10.00;99.90;;;;;;4934906;28;21143;-82
2022/11/06 02:31:12;;;;;;;3.87;3.20;;;10.00;99.90;;;;;;4920947;29;20484;-83
2022/11/06 02:34:06;;;;;;;3.60;3.10;;;10.00;99.90;;;;;;4912907;29;20516;-83
2022/11/06 02:36:37;;;;;;;3.80;2.80;;;10.00;99.90;;;;;;4932007;29;20671;-82
2022/11/06 02:39:10;;;;;;;4.03;2.83;;;9.90;99.90;;;;;;4937035;29;20497;-83
2022/11/06 02:41:41;;;;;;;4.70;2.90;;;9.90;99.90;;;;;;4936029;29;20621;-83
2022/11/06 02:44:14;;;;;;;4.43;3.17;;;9.90;99.90;;;;;;4935112;29;21092;-83
2022/11/06 02:46:46;;;;;;;6.43;3.70;;;9.90;99.90;;;;;;4933948;29;20457;-83
2022/11/06 02:49:38;;;;;;;4.23;3.17;;;9.90;99.90;;;;;;4937405;29;20477;-83
2022/11/06 02:52:24;;;;;;;5.87;3.63;;;9.90;99.90;;;;;;4933770;29;20488;-85
2022/11/06 02:54:59;;;;;;;3.00;2.80;;;9.90;99.90;;;;;;4935241;29;20479;-83
2022/11/06 02:57:30;;;;;;;4.30;3.20;;;9.90;99.90;;;;;;4936227;29;20452;-83
2022/11/06 03:00:06;;;;;;;5.50;3.00;;;9.90;99.90;;;;;;4922640;29;20462;-82
2022/11/06 03:02:39;;;;;;;6.17;3.63;;;9.80;99.90;;;;;;4917919;29;20505;-81
2022/11/06 03:05:32;;;;;;;4.87;3.30;;;9.80;99.90;;;;;;4933975;29;20449;-82
2022/11/06 03:08:16;;;;;;;4.43;2.67;;;9.80;99.90;;;;;;4914979;29;20842;-84
2022/11/06 03:10:54;;;;;;;3.53;3.23;;;9.80;99.90;;;;;;4928456;29;20468;-82
2022/11/06 03:13:47;;;;;;;4.50;3.07;;;9.80;99.90;;;;;;4918491;29;20456;-82
2022/11/06 03:16:49;;;;;;;4.27;2.60;;;9.80;99.90;;;;;;4928307;29;20449;-83
2022/11/06 03:20:27;;;;;;;5.00;4.50;;;9.80;99.90;;;;;;4933400;29;20911;-82
2022/11/06 03:23:26;;;;;;;3.87;2.60;;;9.70;99.90;;;;;;4868138;29;20488;-81
2022/11/06 03:26:00;;;;;;;4.20;2.50;;;9.60;99.90;;;;;;4877552;29;20480;-81
2022/11/06 03:29:01;;;;;;;3.77;2.43;;;9.60;99.90;;;;;;4927614;28;20441;-85
2022/11/06 03:31:57;;;;;;;3.87;2.53;;;9.60;99.90;;;;;;4922232;28;20529;-83
2022/11/06 03:34:33;;;;;;;5.93;2.70;;;9.60;99.90;;;;;;4937446;28;20477;-82
2022/11/06 03:37:21;;;;;;;5.40;2.50;;;9.60;99.90;;;;;;4943598;28;20475;-82
2022/11/06 03:39:53;;;;;;;4.53;2.73;;;9.60;99.90;;;;;;4941282;28;20471;-82
2022/11/06 03:42:24;;;;;;;8.90;2.40;;;9.60;99.90;;;;;;4940918;28;20538;-81
2022/11/06 03:44:55;;;;;;;4.23;2.40;;;9.70;99.90;;;;;;4927709;28;20500;-81
2022/11/06 03:47:35;;;;;;;3.40;2.47;;;9.60;99.90;;;;;;4938165;28;20468;-82
2022/11/06 03:50:20;;;;;;;8.07;2.73;;;9.80;99.90;;;;;;4944864;28;20463;-81
2022/11/06 03:52:57;;;;;;;5.10;3.70;;;9.80;99.90;;;;;;4947244;28;20455;-82
2022/11/06 03:55:30;;;;;;;7.33;2.50;;;9.90;99.90;;;;;;4941974;28;20501;-81
2022/11/06 03:58:03;;;;;;;4.83;2.63;;;9.90;99.90;;;;;;4940230;28;20515;-83
2022/11/06 04:00:34;;;;;;;4.93;2.20;;;9.90;99.90;;;;;;4930170;28;20459;-83
2022/11/06 04:03:06;;;;;;;5.40;2.90;;;9.80;99.90;;;;;;4944517;28;20490;-81
2022/11/06 04:05:38;;;;;;;2.70;2.00;;;9.90;99.90;;;;;;4942239;28;20591;-82
2022/11/06 04:14:03;;;;;;;3.47;2.80;;;9.80;99.90;;;;;;4947464;28;20456;-81
2022/11/06 04:16:35;;;;;;;3.50;2.50;;;9.80;99.90;;;;;;4947627;28;20464;-83
2022/11/06 04:19:02;;;;;;;4.30;2.17;;;9.80;99.90;;;;;;4942850;28;20467;-84
2022/11/06 04:21:45;;;;;;;5.53;2.53;;;9.70;99.90;;;;;;4940792;28;20484;-81
2022/11/06 04:27:59;;;;;;;4.70;2.30;;;9.70;99.90;;;;;;4944998;28;20464;-82
2022/11/06 04:30:34;;;;;;;3.47;2.40;;;9.60;99.90;;;;;;4945331;28;20465;-83
2022/11/06 04:33:41;;;;;;;4.50;2.40;;;9.70;99.90;;;;;;4929056;28;20553;-82
2022/11/06 04:36:25;;;;;;;1.60;1.40;;;9.80;99.90;;;;;;4936377;28;20499;-82
2022/11/06 04:39:26;;;;;;;5.30;1.90;;;9.80;99.90;;;;;;4929645;28;20891;-82
2022/11/06 04:42:17;;;;;;;2.70;1.97;;;9.80;99.90;;;;;;4924984;28;20500;-81
2022/11/06 04:44:51;;;;;;;2.70;2.50;;;9.80;99.90;;;;;;4943902;28;20537;-83
2022/11/06 04:47:21;;;;;;;4.40;2.00;;;9.60;99.90;;;;;;4930137;28;20474;-83
2022/11/06 04:49:51;;;;;;;4.00;2.20;;;9.70;99.90;;;;;;4932321;28;20466;-84
2022/11/06 04:52:22;;;;;;;2.83;2.33;;;9.70;99.90;;;;;;4948208;28;20519;-82
2022/11/06 04:54:49;;;;;;;1.83;1.73;;;9.60;99.90;;;;;;4948982;28;20472;-85
2022/11/06 04:57:16;;;;;;;3.37;2.20;;;9.70;99.90;;;;;;4949227;28;20522;-83
2022/11/06 04:59:42;;;;;;;3.47;3.00;;;9.80;99.90;;;;;;4949522;28;20464;-84
2022/11/06 05:02:10;;;;;;;4.00;2.20;;;9.80;99.90;;;;;;4945927;28;20809;-84
2022/11/06 05:04:39;;;;;;;2.80;2.20;;;9.70;99.90;;;;;;4946887;28;20558;-83
2022/11/06 05:07:05;;;;;;;1.97;1.73;;;9.70;99.90;;;;;;4951413;28;20445;-84
2022/11/06 05:09:34;;;;;;;5.03;2.50;;;9.70;99.90;;;;;;4931611;28;20537;-83
2022/11/06 05:12:01;;;;;;;3.17;1.90;;;9.60;99.90;;;;;;4937225;28;21056;-83
2022/11/06 05:14:31;;;;;;;3.27;1.97;;;9.60;99.90;;;;;;4949940;28;20998;-82
2022/11/06 05:16:58;;;;;;;4.10;1.93;;;9.60;99.90;;;;;;4946959;28;20475;-83
2022/11/06 05:19:25;;;;;;;4.80;2.63;;;9.60;99.90;;;;;;4946829;28;20447;-81
2022/11/06 05:24:37;;;;;;;2.43;2.13;;;9.60;99.90;;;;;;4947817;28;20589;-83
2022/11/06 05:27:04;;;;;;;5.83;2.40;;;9.60;99.90;;;;;;4950444;28;20445;-84
2022/11/06 05:29:30;;;;;;;4.10;2.00;;;9.60;99.90;;;;;;4934355;28;20553;-81
2022/11/06 05:31:57;;;;;;;5.13;2.10;;;9.60;99.90;;;;;;4933578;28;20482;-84
2022/11/06 05:35:10;;;;;;;5.10;2.40;;;9.60;99.90;;;;;;4935580;28;20993;-81
2022/11/06 05:37:37;;;;;;;2.30;1.37;;;9.70;99.90;;;;;;4932642;28;20499;-83
2022/11/06 05:40:04;;;;;;;2.53;2.20;;;9.70;99.90;;;;;;4948218;28;20474;-82
2022/11/06 05:42:31;;;;;;;4.93;2.10;;;9.70;99.90;;;;;;4946701;28;20536;-81
2022/11/06 05:44:57;;;;;;;2.47;1.90;;;9.70;99.90;;;;;;4947606;28;20548;-82
2022/11/06 05:47:24;;;;;;;4.20;2.13;;;9.60;99.90;;;;;;4945887;28;20476;-82
2022/11/06 05:49:51;;;;;;;3.83;2.00;;;9.60;99.90;;;;;;4944082;28;20478;-83
2022/11/06 05:52:18;;;;;;;1.47;1.37;;;9.60;99.90;;;;;;4933446;28;20472;-83
2022/11/06 05:54:44;;;;;;;4.40;2.20;;;9.60;99.90;;;;;;4936112;28;20461;-82
2022/11/06 05:57:11;;;;;;;2.30;1.80;;;9.60;99.90;;;;;;4934045;28;20463;-83
2022/11/06 05:59:37;;;;;;;4.60;2.00;;;9.60;99.90;;;;;;4943217;28;20550;-85
2022/11/06 06:02:04;;;;;;;2.97;2.33;;;9.60;99.90;;;;;;4936547;28;20479;-85
2022/11/06 06:04:31;;;;;;;3.13;2.03;;;9.60;99.90;;;;;;4952098;28;20548;-82
2022/11/06 06:06:58;;;;;;;2.70;1.70;;;9.70;99.90;;;;;;4933755;28;20479;-83
2022/11/06 06:09:25;;;;;;;4.70;1.90;;;9.80;99.90;;;;;;4949901;28;20936;-80
2022/11/06 06:11:52;;;;;;;2.57;1.90;;;9.80;99.90;;;;;;4947943;28;20543;-82
2022/11/06 06:14:20;;;;;;;6.17;2.60;;;9.80;99.90;;;;;;4945664;28;21020;-83
2022/11/06 06:16:46;;;;;;;2.20;1.60;;;9.80;99.90;;;;;;4933065;28;20492;-83
2022/11/06 06:19:13;;;;;;;4.30;1.87;;;9.80;99.90;;;;;;4930395;28;20633;-83
2022/11/06 06:21:40;;;;;;;2.53;1.70;;;9.80;99.90;;;;;;4945697;28;21036;-82
2022/11/06 06:24:07;;;;;;;2.80;1.90;;;9.80;99.90;;;;;;4949312;28;20484;-81
2022/11/06 06:26:34;;;;;;;3.70;2.50;;;9.80;99.90;;;;;;4942590;28;20503;-81
2022/11/06 06:29:01;;;;;;;4.40;1.90;;;9.80;99.90;;;;;;4947322;28;20826;-81
2022/11/06 06:31:28;;;;;;;3.10;1.80;;;9.80;99.90;;;;;;4960551;28;20471;-82
2022/11/06 06:33:54;;;;;;;2.50;2.00;;;9.80;99.90;;;;;;4943689;29;21233;-84
2022/11/06 06:36:21;;;;;;;5.10;2.20;;;9.80;99.90;;;;;;4950761;29;20448;-84
2022/11/06 06:38:49;;;;;;;3.63;2.00;;;9.60;99.90;;;;;;4951464;29;20496;-83
2022/11/06 06:41:15;;;;;;;5.40;2.23;;;9.60;99.90;;;;;;4948817;28;20839;-82
2022/11/06 06:43:42;;;;;;;6.57;2.53;;;9.80;99.90;;;;;;4954524;28;21767;-83
2022/11/06 06:46:09;;;;;;;4.10;1.70;;;9.80;99.90;;;;;;4942462;29;21581;-83
2022/11/06 06:48:35;;;;;;;2.50;2.23;;;9.90;99.90;;;;;;4949762;28;20436;-83
2022/11/06 06:51:03;;;;;;;2.73;1.80;;;9.90;99.90;;;;;;4947322;28;20549;-83
2022/11/06 06:53:30;;;;;;;4.17;2.60;;;9.90;99.90;;;;;;4952744;28;20479;-83
2022/11/06 06:55:59;;;;;;;5.80;1.97;;;10.00;99.90;;;;;;4950844;29;20449;-84
2022/11/06 06:58:26;;;;;;;1.90;1.80;;;10.10;99.90;;;;;;4949865;29;20973;-84
2022/11/06 07:00:54;;;;;;;3.20;1.90;;;10.10;99.90;;;;;;4948149;28;21705;-83
2022/11/06 07:03:21;;;;;;;2.30;1.70;;;10.30;99.90;;;;;;4933079;29;20543;-84
2022/11/06 07:05:48;;;;;;;6.90;2.50;;;10.20;99.90;;;;;;4949563;29;20487;-84
2022/11/06 07:08:14;;;;;;;3.33;1.70;;;10.20;99.90;;;;;;4948337;28;20456;-84
2022/11/06 07:10:42;;;;;;;5.90;2.73;;;10.20;99.90;;;;;;4947637;28;20482;-81
2022/11/06 07:13:09;;;;;;;3.47;1.50;;;10.20;99.90;;;;;;4949497;28;20465;-83
2022/11/06 07:15:36;;;;;;;10.07;2.13;;;10.10;99.90;;;;;;4948881;28;20510;-85
2022/11/06 07:18:05;;;;;;;4.70;2.10;;;10.10;99.90;;;;;;4948144;28;20450;-83
2022/11/06 07:20:32;;;;;;;2.60;2.00;;;10.30;99.90;;;;;;4937975;28;20962;-84
2022/11/06 07:23:03;;;;;;;2.10;1.90;;;10.30;99.90;;;;;;4953036;29;20443;-81
2022/11/06 07:25:30;;;;;;;3.40;2.43;;;10.40;99.90;;;;;;4967829;28;20489;-83
2022/11/06 07:28:05;;;;;;;2.20;2.00;;;10.90;99.90;;;;;;4963587;28;20433;-82
2022/11/06 07:30:32;;;;;;;3.93;2.17;;;11.20;99.90;;;;;;4953991;28;20458;-81
2022/11/06 07:33:00;;;;;;;4.10;2.37;;;10.90;99.90;;;;;;4967934;28;20464;-82
2022/11/06 07:35:28;;;;;;;5.60;1.80;;;10.70;99.90;;;;;;4952476;28;20448;-83
2022/11/06 07:37:54;;;;;;;2.00;1.90;;;10.70;99.90;;;;;;4933200;28;20543;-83
2022/11/06 07:40:21;;;;;;;4.47;2.07;;;10.70;99.90;;;;;;4945795;28;20535;-82
2022/11/06 07:42:48;;;;;;;8.33;3.40;;;10.60;99.90;;;;;;4945954;28;20555;-82
2022/11/06 07:45:15;;;;;;;5.17;2.03;;;10.60;99.90;;;;;;4944659;28;20522;-82
2022/11/06 07:47:41;;;;;;;2.17;1.97;;;10.50;99.90;;;;;;4948893;28;22218;-82
2022/11/06 07:50:08;;;;;;;6.50;2.27;;;10.60;99.90;;;;;;4950120;28;20448;-83
2022/11/06 07:52:35;;;;;;;2.37;2.07;;;10.60;99.90;;;;;;4947237;28;20517;-83
2022/11/06 07:55:01;;;;;;;5.43;2.47;;;10.60;99.90;;;;;;4926812;28;20459;-83
2022/11/06 07:57:28;;;;;;;3.50;2.40;;;10.80;99.90;;;;;;4925585;28;20467;-83
2022/11/06 07:59:55;;;;;;;3.90;2.30;;;10.80;99.90;;;;;;4940903;28;20473;-85
2022/11/06 08:02:21;;;;;;;1.40;1.30;;;10.90;99.90;;;;;;4938651;28;20482;-83
2022/11/06 08:04:48;;;;;;;7.27;3.57;;;10.90;99.90;;;;;;4941767;28;20503;-84
2022/11/06 08:07:15;;;;;;;5.17;1.80;;;10.90;99.90;;;;;;4941059;28;20463;-84
2022/11/06 08:09:41;;;;;;;4.57;2.43;;;11.10;99.90;;;;;;4939031;28;20480;-83
2022/11/06 08:12:08;;;;;;;9.70;2.97;;;11.20;99.90;;;;;;4944011;28;21153;-83
2022/11/06 08:14:35;;;;;;;4.07;2.10;;;11.20;99.90;;;;;;4935217;28;20480;-84
2022/11/06 08:17:07;;;;;;;4.87;2.23;;;11.00;99.90;;;;;;4949670;28;20551;-83
2022/11/06 08:19:34;;;;;;;9.03;3.53;;;11.00;99.90;;;;;;4931685;28;20459;-82
2022/11/06 08:22:00;;;;;;;6.73;2.70;;;10.90;99.90;;;;;;4959417;28;20490;-83
2022/11/06 08:24:27;;;;;;;2.43;2.23;;;10.90;99.90;;;;;;4948822;28;20567;-82
2022/11/06 08:26:54;;;;;;;3.93;2.30;;;11.00;99.90;;;;;;4952129;28;20498;-83
2022/11/06 08:29:20;;;;;;;3.23;2.47;;;11.00;99.90;;;;;;4953328;28;20442;-81
2022/11/06 08:31:47;;;;;;;3.53;2.53;;;11.10;99.90;;;;;;4933437;28;21096;-85
2022/11/06 08:34:14;;;;;;;4.30;2.17;;;11.20;99.90;;;;;;4932948;28;20467;-83
2022/11/06 08:36:53;;;;;;;5.43;2.70;;;11.40;99.90;;;;;;4935458;28;20463;-83
2022/11/06 08:39:20;;;;;;;4.57;2.10;;;11.30;99.90;;;;;;4932507;28;20476;-82
2022/11/06 08:41:47;;;;;;;10.50;2.93;;;11.50;99.90;;;;;;4953582;28;20480;-82
2022/11/06 08:44:14;;;;;;;4.70;2.00;;;11.50;99.90;;;;;;4951352;28;20498;-83
2022/11/06 08:46:40;;;;;;;4.87;2.30;;;11.50;99.90;;;;;;4954323;28;20466;-82
2022/11/06 08:49:08;;;;;;;3.83;2.30;;;11.60;99.90;;;;;;4931963;28;20453;-82
2022/11/06 08:51:35;;;;;;;3.77;2.40;;;11.70;99.90;;;;;;4951698;28;20484;-84
2022/11/06 08:54:01;;;;;;;4.40;3.80;;;11.80;99.90;;;;;;4950726;28;21002;-82
2022/11/06 08:56:28;;;;;;;2.43;2.03;;;11.60;99.90;;;;;;4951999;28;20502;-82
2022/11/06 08:58:55;;;;;;;4.00;2.23;;;11.50;99.90;;;;;;4952920;28;20455;-82
2022/11/06 09:01:22;;;;;;;8.23;2.53;;;11.40;99.90;;;;;;4951964;28;21364;-82
2022/11/06 09:03:50;;;;;;;4.43;1.87;;;11.60;99.90;;;;;;4952666;28;20540;-84
2022/11/06 09:06:17;;;;;;;3.80;2.30;;;11.60;99.90;;;;;;4957153;28;20535;-83
2022/11/06 09:08:44;;;;;;;6.73;3.30;;;11.40;99.90;;;;;;4959549;28;20448;-84
2022/11/06 09:11:12;;;;;;;3.37;2.67;;;11.50;99.90;;;;;;4951247;28;20519;-81
2022/11/06 09:13:43;;;;;;;4.53;1.90;;;11.60;99.90;;;;;;4954342;28;20468;-84
2022/11/06 09:16:10;;;;;;;3.80;2.30;;;11.80;99.90;;;;;;4953240;28;20506;-84
2022/11/06 09:18:41;;;;;;;2.67;2.20;;;12.00;99.90;;;;;;4947691;28;20542;-85
2022/11/06 09:21:08;;;;;;;3.23;1.87;;;11.90;99.90;;;;;;4931684;28;20507;-83
2022/11/06 09:23:35;;;;;;;4.30;2.33;;;12.00;99.90;;;;;;4951574;28;20468;-83
2022/11/06 09:26:01;;;;;;;4.83;2.30;;;12.00;99.90;;;;;;4948723;28;20495;-84
2022/11/06 09:28:28;;;;;;;4.27;2.30;;;12.60;99.90;;;;;;4945048;28;20536;-83
2022/11/06 09:30:54;;;;;;;3.40;1.70;;;14.00;97.60;;;;;;4946970;28;20551;-83
2022/11/06 09:33:21;;;;;;;2.03;1.80;;;14.40;95.60;;;;;;4949058;28;20619;-83
2022/11/06 09:35:48;;;;;;;4.80;2.13;;;14.70;94.70;;;;;;4930641;28;20464;-83
2022/11/06 09:38:14;;;;;;;4.00;2.00;;;14.60;93.80;;;;;;4934058;28;22068;-84
2022/11/06 09:40:59;;;;;;;5.40;2.27;;;13.70;95.30;;;;;;4950758;28;20587;-82
2022/11/06 09:43:49;;;;;;;6.50;2.93;;;13.20;96.60;;;;;;4946274;28;20507;-83
2022/11/06 09:46:40;;;;;;;3.10;2.40;;;12.80;97.70;;;;;;4949117;28;20455;-82
2022/11/06 09:49:27;;;;;;;2.87;2.30;;;12.60;98.60;;;;;;4950708;28;20456;-82
2022/11/06 09:52:12;;;;;;;5.03;2.47;;;12.70;98.70;;;;;;4932275;28;21074;-84
2022/11/06 09:54:44;;;;;;;4.93;2.40;;;12.60;98.90;;;;;;4933634;28;20472;-82
2022/11/06 09:57:45;;;;;;;3.30;3.00;;;12.50;99.30;;;;;;4929824;28;20464;-84
2022/11/06 10:00:14;;;;;;;2.80;2.50;;;12.30;99.00;;;;;;4939373;28;20469;-84
2022/11/06 10:03:01;;;;;;;3.40;2.73;;;12.40;99.40;;;;;;4931591;28;20568;-83
2022/11/06 10:05:35;;;;;;;8.40;2.80;;;12.50;99.20;;;;;;4959853;28;20472;-82
2022/11/06 10:08:21;;;;;;;4.43;3.10;;;12.40;99.50;;;;;;4956164;28;20464;-83
2022/11/06 10:11:09;;;;;;;3.50;2.73;;;12.60;99.90;;;;;;4956200;28;20491;-83
2022/11/06 10:13:53;;;;;;;5.50;4.00;;;12.80;99.10;;;;;;4957731;28;20451;-82
2022/11/06 10:16:51;;;;;;;5.43;3.30;;;13.00;98.40;;;;;;4961888;28;20460;-83
2022/11/06 10:20:05;;;;;;;3.43;2.40;;;13.00;97.80;;;;;;4947448;28;20473;-84
2022/11/06 10:22:41;;;;;;;3.70;2.47;;;12.90;97.80;;;;;;4903162;28;20570;-83
2022/11/06 10:25:25;;;;;;;4.47;2.70;;;12.80;97.70;;;;;;4940395;28;20492;-84
2022/11/06 10:28:17;;;;;;;6.50;2.57;;;12.70;98.20;;;;;;4950201;28;20469;-84
2022/11/06 10:31:13;;;;;;;4.53;2.53;;;12.80;98.10;;;;;;4948573;28;20508;-84
2022/11/06 10:33:53;;;;;;;4.03;2.67;;;12.90;98.40;;;;;;4931785;28;20474;-86
2022/11/06 10:36:33;;;;;;;6.63;2.97;;;13.10;97.50;;;;;;4946311;28;21058;-85
2022/11/06 10:39:14;;;;;;;3.90;3.00;;;13.10;97.10;;;;;;4929051;28;20471;-83
2022/11/06 10:41:50;;;;;;;3.60;2.40;;;12.80;97.60;;;;;;4950214;28;20534;-84
2022/11/06 10:44:44;;;;;;;3.53;3.23;;;13.00;97.50;;;;;;4947176;28;20470;-82
2022/11/06 10:47:18;;;;;;;5.47;2.70;;;12.80;97.90;;;;;;4951810;28;20499;-84
2022/11/06 10:49:58;;;;;;;4.33;2.90;;;12.80;97.90;;;;;;4936984;28;20465;-83
2022/11/06 10:53:04;;;;;;;2.13;1.77;;;12.80;98.10;;;;;;4951362;28;20861;-84
2022/11/06 10:56:09;;;;;;;3.03;2.53;;;12.90;98.10;;;;;;4951021;28;20452;-84
2022/11/06 10:58:39;;;;;;;5.97;3.33;;;12.90;98.20;;;;;;4950803;28;20932;-83
2022/11/06 11:01:14;;;;;;;5.47;3.57;;;12.90;98.10;;;;;;4935419;28;20991;-84
2022/11/06 11:03:46;;;;;;;4.23;2.87;;;12.80;98.20;;;;;;4948372;28;20476;-84
2022/11/06 11:06:13;;;;;;;3.47;3.17;;;12.70;98.60;;;;;;4947754;28;20578;-86
2022/11/06 11:08:45;;;;;;;3.17;2.87;;;12.70;99.00;;;;;;4946791;28;20440;-84
2022/11/06 11:11:12;;;;;;;2.70;2.30;;;12.80;98.50;;;;;;4933572;28;20490;-82
2022/11/06 11:14:01;;;;;;;2.60;2.40;;;12.80;98.70;;;;;;4953012;28;20882;-86
2022/11/06 11:16:48;;;;;;;2.93;2.63;;;12.80;98.00;;;;;;4934726;28;20454;-84
2022/11/06 11:19:42;;;;;;;2.73;2.33;;;12.90;97.90;;;;;;4937391;28;20487;-86
2022/11/06 11:22:21;;;;;;;4.00;2.83;;;12.90;97.60;;;;;;4960322;23;20571;-85
2022/11/06 11:25:24;;;;;;;4.87;2.57;;;12.60;98.10;;;;;;4946270;28;21063;-84
2022/11/06 11:28:03;;;;;;;2.80;2.30;;;12.50;98.30;;;;;;4927967;29;20492;-84
2022/11/06 11:31:31;;;;;;;5.97;2.17;;;12.70;98.20;;;;;;4928827;28;20476;-84
2022/11/06 11:34:04;;;;;;;2.87;2.23;;;12.60;98.00;;;;;;4927758;29;20466;-85
2022/11/06 11:37:01;;;;;;;3.90;2.27;;;12.70;98.30;;;;;;4926418;29;20517;-84
2022/11/06 11:39:34;;;;;;;3.63;2.23;;;12.80;98.00;;;;;;4940828;29;20476;-85
2022/11/06 11:42:46;;;;;;;2.77;2.47;;;12.80;97.80;;;;;;4907272;29;20768;-84
2022/11/06 11:45:34;;;;;;;4.83;2.63;;;12.80;97.60;;;;;;4926969;29;20985;-83
2022/11/06 11:48:17;;;;;;;3.00;2.20;;;13.00;97.30;;;;;;4944940;28;21127;-85
2022/11/06 11:50:59;;;;;;;2.73;2.17;;;12.70;97.50;;;;;;4931701;29;20480;-82
2022/11/06 11:53:42;;;;;;;3.63;2.60;;;13.10;97.10;;;;;;4946229;29;20444;-84
2022/11/06 11:56:15;;;;;;;3.73;2.23;;;13.00;97.10;;;;;;4936744;29;20472;-83
2022/11/06 11:59:01;;;;;;;5.23;2.87;;;13.20;96.90;;;;;;4938898;29;20578;-85
2022/11/06 12:01:47;;;;;;;4.97;2.40;;;13.20;96.80;;;;;;4933077;29;20491;-84
2022/11/06 12:04:28;;;;;;;1.67;1.57;;;13.20;96.50;;;;;;4945342;29;20471;-82
2022/11/06 12:07:25;;;;;;;2.10;1.90;;;13.20;96.30;;;;;;4933309;29;20467;-85
2022/11/06 12:10:38;;;;;;;3.90;2.03;;;13.10;96.60;;;;;;4927467;29;20451;-85
2022/11/06 12:13:22;;;;;;;3.47;1.90;;;13.30;96.20;;;;;;4930284;29;20528;-84
2022/11/06 12:16:07;;;;;;;3.80;2.40;;;13.20;96.10;;;;;;4930440;29;20953;-86
2022/11/06 12:18:46;;;;;;;4.03;2.00;;;13.30;96.20;;;;;;4927742;29;20457;-83
2022/11/06 12:21:23;;;;;;;3.03;2.40;;;13.50;95.40;;;;;;4928578;29;20503;-84
2022/11/06 12:24:10;;;;;;;3.00;1.80;;;13.60;95.20;;;;;;4931147;29;20465;-83
2022/11/06 12:27:03;;;;;;;3.90;1.90;;;13.60;94.70;;;;;;4942467;29;20493;-84
2022/11/06 12:29:47;;;;;;;3.67;1.90;;;13.50;94.90;;;;;;4943988;29;20478;-84
2022/11/06 12:32:39;;;;;;;2.13;1.77;;;13.60;94.90;;;;;;4930687;29;20836;-83
2022/11/06 12:35:38;;;;;;;1.60;1.50;;;13.70;94.40;;;;;;4929052;29;20955;-85
2022/11/06 12:38:37;;;;;;;3.17;1.60;;;13.80;94.20;;;;;;4943963;29;20474;-84
2022/11/06 12:41:29;;;;;;;1.83;1.30;;;13.60;93.90;;;;;;4923198;29;20506;-85
2022/11/06 12:44:02;;;;;;;3.70;1.77;;;13.50;94.00;;;;;;4940215;28;21681;-84
2022/11/06 12:46:59;;;;;;;3.50;1.73;;;13.70;93.60;;;;;;4929763;29;20468;-83
2022/11/06 12:49:51;;;;;;;3.13;1.93;;;13.80;93.20;;;;;;4943834;29;20471;-84
2022/11/06 12:52:48;;;;;;;3.20;1.90;;;13.80;93.40;;;;;;4930840;29;20501;-84
2022/11/06 12:55:41;;;;;;;1.70;1.60;;;13.80;93.50;;;;;;4944330;29;20463;-84
2022/11/06 12:58:29;;;;;;;3.97;1.90;;;13.60;93.40;;;;;;4942654;29;20461;-82
2022/11/06 13:01:14;;;;;;;3.83;1.60;;;13.70;93.40;;;;;;4928349;29;20489;-84
2022/11/06 13:03:43;;;;;;;4.13;1.83;;;13.60;93.70;;;;;;4931485;29;20468;-84
2022/11/06 13:06:29;;;;;;;2.50;2.00;;;13.80;93.50;;;;;;4928146;29;20506;-84
2022/11/06 13:09:21;;;;;;;1.40;1.30;;;14.00;92.80;;;;;;4929851;29;20472;-84
2022/11/06 13:12:11;;;;;;;;;;;;;;;;;;;;;
2022/11/06 13:14:50;;;;;;;4.70;1.53;;;13.70;93.20;;;;;;4933276;29;20489;-85
2022/11/06 13:17:28;;;;;;;2.10;1.87;;;13.80;93.10;;;;;;4945270;29;20557;-86
2022/11/06 13:20:21;;;;;;;1.63;1.00;;;13.70;93.10;;;;;;4942055;29;20517;-84
2022/11/06 13:23:09;;;;;;;2.33;1.87;;;13.70;92.90;;;;;;4943733;29;21193;-83
2022/11/06 13:26:17;;;;;;;2.47;1.33;;;13.60;93.00;;;;;;4928221;29;20485;-84
2022/11/06 13:28:50;;;;;;;3.37;1.90;;;13.70;93.00;;;;;;4943114;29;20481;-84
2022/11/06 13:31:22;;;;;;;3.07;1.63;;;13.70;93.10;;;;;;4927416;29;20477;-84
2022/11/06 13:33:57;;;;;;;2.40;1.43;;;13.60;93.40;;;;;;4931495;29;20464;-81
2022/11/06 13:36:28;;;;;;;2.67;1.27;;;13.70;93.10;;;;;;4916204;29;20476;-86
2022/11/06 13:39:20;;;;;;;1.90;1.53;;;13.80;93.00;;;;;;4942028;28;20472;-82
2022/11/06 13:41:47;;;;;;;4.00;2.40;;;13.90;92.80;;;;;;4929333;29;20476;-83
2022/11/06 13:44:21;;;;;;;1.37;1.13;;;14.00;92.50;;;;;;4950629;29;20564;-83
2022/11/06 13:47:18;;;;;;;2.53;1.33;;;14.00;92.40;;;;;;4941176;29;21122;-84
2022/11/06 13:50:18;;;;;;;2.00;1.73;;;14.10;92.30;;;;;;4942245;29;20683;-85